SAS455 ENEV-ESNU
Flight info
| Callsign | SAS455 |
|---|---|
| Flight time | N/A |
| Altitude | 33000 |
| Route | AMIMO DCT KETEL |
| Aircraft | A320/M-SDE3FGHIRWY/LB1 |
Departure
| Time | 2026-04-24 16:54 |
|---|---|
| Airport | Harstad/Narvik Airport (ENEV) |
Arrival
| Time | N/A |
|---|---|
| Airport | Umeå Airport (ESNU) |
| Time | Latitude | Longitude | Altitude | Speed | Heading |
|---|---|---|---|---|---|
| 2026-04-24 16:10 | 68.48974 | 16.68522 | 93 ft | 0 kts | 357° |
| 2026-04-24 16:42 | 68.48973 | 16.68522 | 93 ft | 1 kts | 357° |
| 2026-04-24 16:42 | 68.48949 | 16.68523 | 94 ft | 4 kts | 1° |
| 2026-04-24 16:42 | 68.48923 | 16.68527 | 93 ft | 3 kts | 343° |
| 2026-04-24 16:42 | 68.48903 | 16.68544 | 93 ft | 4 kts | 344° |
| 2026-04-24 16:43 | 68.48884 | 16.68562 | 96 ft | 0 kts | 334° |
| 2026-04-24 16:46 | 68.48893 | 16.68524 | 93 ft | 5 kts | 285° |
| 2026-04-24 16:46 | 68.48891 | 16.68413 | 93 ft | 5 kts | 266° |
| 2026-04-24 16:46 | 68.48889 | 16.68326 | 95 ft | 4 kts | 266° |
| 2026-04-24 16:47 | 68.48878 | 16.68242 | 94 ft | 5 kts | 226° |
| 2026-04-24 16:47 | 68.48841 | 16.68232 | 93 ft | 6 kts | 179° |
| 2026-04-24 16:47 | 68.48802 | 16.68236 | 93 ft | 5 kts | 178° |
| 2026-04-24 16:47 | 68.48758 | 16.68241 | 93 ft | 7 kts | 178° |
| 2026-04-24 16:48 | 68.48712 | 16.68246 | 93 ft | 6 kts | 178° |
| 2026-04-24 16:48 | 68.48667 | 16.68251 | 94 ft | 6 kts | 178° |
| 2026-04-24 16:48 | 68.48629 | 16.68254 | 94 ft | 5 kts | 178° |
| 2026-04-24 16:48 | 68.48550 | 16.68263 | 93 ft | 18 kts | 177° |
| 2026-04-24 16:49 | 68.48430 | 16.68276 | 93 ft | 16 kts | 178° |
| 2026-04-24 16:49 | 68.48323 | 16.68287 | 94 ft | 15 kts | 178° |
| 2026-04-24 16:49 | 68.48224 | 16.68297 | 94 ft | 13 kts | 178° |
| 2026-04-24 16:49 | 68.48135 | 16.68308 | 94 ft | 12 kts | 177° |
| 2026-04-24 16:50 | 68.48081 | 16.68315 | 94 ft | 11 kts | 177° |
| 2026-04-24 16:50 | 68.47983 | 16.68327 | 93 ft | 10 kts | 177° |
| 2026-04-24 16:50 | 68.47921 | 16.68299 | 94 ft | 8 kts | 210° |
| 2026-04-24 16:50 | 68.47907 | 16.68228 | 92 ft | 0 kts | 257° |
| 2026-04-24 16:53 | 68.47903 | 16.68173 | 93 ft | 9 kts | 257° |
| 2026-04-24 16:53 | 68.47901 | 16.68005 | 94 ft | 9 kts | 293° |
| 2026-04-24 16:53 | 68.47962 | 16.67950 | 92 ft | 11 kts | 355° |
| 2026-04-24 16:53 | 68.48186 | 16.67910 | 91 ft | 66 kts | 358° |
| 2026-04-24 16:54 | 68.48866 | 16.67838 | 94 ft | 126 kts | 358° |
| 2026-04-24 16:54 | 68.49886 | 16.67719 | 299 ft | 156 kts | 359° |
| 2026-04-24 16:54 | 68.50977 | 16.67743 | 945 ft | 159 kts | 0° |
| 2026-04-24 16:54 | 68.52088 | 16.67815 | 1621 ft | 163 kts | 359° |
| 2026-04-24 16:55 | 68.53295 | 16.67667 | 1996 ft | 185 kts | 356° |
| 2026-04-24 16:55 | 68.54654 | 16.67435 | 2370 ft | 206 kts | 356° |
| 2026-04-24 16:55 | 68.56174 | 16.67182 | 2864 ft | 232 kts | 356° |
| 2026-04-24 16:55 | 68.57830 | 16.66921 | 3727 ft | 243 kts | 356° |
| 2026-04-24 16:56 | 68.59533 | 16.66673 | 4730 ft | 247 kts | 357° |
| 2026-04-24 16:56 | 68.61264 | 16.66701 | 5661 ft | 252 kts | 11° |
| 2026-04-24 16:56 | 68.62810 | 16.69015 | 6518 ft | 263 kts | 45° |
| 2026-04-24 16:56 | 68.63620 | 16.73536 | 7359 ft | 274 kts | 80° |
| 2026-04-24 16:57 | 68.63365 | 16.78757 | 8213 ft | 285 kts | 114° |
| 2026-04-24 16:57 | 68.62089 | 16.82904 | 9061 ft | 292 kts | 148° |
| 2026-04-24 16:57 | 68.60196 | 16.84961 | 9887 ft | 295 kts | 169° |
| 2026-04-24 16:57 | 68.58129 | 16.86228 | 10276 ft | 317 kts | 169° |
| 2026-04-24 16:58 | 68.55903 | 16.87560 | 10719 ft | 334 kts | 169° |
| 2026-04-24 16:58 | 68.53645 | 16.88895 | 11398 ft | 339 kts | 170° |
| 2026-04-24 16:58 | 68.51342 | 16.90531 | 12150 ft | 346 kts | 164° |
| 2026-04-24 16:58 | 68.49080 | 16.92878 | 12896 ft | 351 kts | 159° |
| 2026-04-24 16:59 | 68.46812 | 16.95506 | 13624 ft | 355 kts | 162° |
| 2026-04-24 16:59 | 68.44430 | 16.97277 | 14258 ft | 356 kts | 175° |
| 2026-04-24 16:59 | 68.39581 | 16.96136 | 15522 ft | 351 kts | 204° |
| 2026-04-24 17:00 | 68.37307 | 16.93717 | 16192 ft | 352 kts | 207° |
| 2026-04-24 17:00 | 68.32694 | 16.88896 | 17353 ft | 364 kts | 207° |
| 2026-04-24 17:00 | 68.30275 | 16.86435 | 17672 ft | 376 kts | 207° |
| 2026-04-24 17:01 | 68.25319 | 16.81477 | 18693 ft | 383 kts | 207° |
| 2026-04-24 17:01 | 68.22807 | 16.78980 | 19223 ft | 386 kts | 208° |
| 2026-04-24 17:02 | 68.17746 | 16.73940 | 20274 ft | 391 kts | 208° |
| 2026-04-24 17:02 | 68.15190 | 16.71385 | 20807 ft | 392 kts | 208° |
| 2026-04-24 17:02 | 68.12625 | 16.68835 | 21306 ft | 394 kts | 208° |
| 2026-04-24 17:02 | 68.10048 | 16.66276 | 21758 ft | 397 kts | 209° |
| 2026-04-24 17:03 | 68.04835 | 16.61097 | 22688 ft | 402 kts | 209° |
| 2026-04-24 17:03 | 68.02205 | 16.58504 | 23101 ft | 404 kts | 210° |
| 2026-04-24 17:03 | 67.97969 | 16.54338 | 23798 ft | 407 kts | 210° |
| 2026-04-24 17:04 | 67.92619 | 16.49153 | 24573 ft | 414 kts | 208° |
| 2026-04-24 17:04 | 67.80572 | 16.54637 | 25919 ft | 490 kts | 157° |
| 2026-04-24 17:04 | 67.74642 | 16.63739 | 26604 ft | 496 kts | 158° |
| 2026-04-24 17:05 | 67.68622 | 16.72743 | 27220 ft | 501 kts | 159° |
| 2026-04-24 17:05 | 67.62504 | 16.81821 | 27731 ft | 507 kts | 160° |
| 2026-04-24 17:05 | 67.50076 | 17.00226 | 28749 ft | 520 kts | 160° |
| 2026-04-24 17:06 | 67.43745 | 17.09547 | 29282 ft | 525 kts | 160° |
| 2026-04-24 17:06 | 67.30986 | 17.28140 | 30638 ft | 525 kts | 159° |
| 2026-04-24 17:06 | 67.24601 | 17.37335 | 30659 ft | 523 kts | 159° |
| 2026-04-24 17:07 | 67.11954 | 17.55383 | 30709 ft | 519 kts | 159° |
| 2026-04-24 17:08 | 66.86489 | 17.91038 | 30706 ft | 527 kts | 159° |
| 2026-04-24 17:08 | 66.73599 | 18.08825 | 30699 ft | 527 kts | 159° |
| 2026-04-24 17:09 | 66.47697 | 18.43843 | 30705 ft | 528 kts | 160° |
| 2026-04-24 17:10 | 66.21911 | 18.77886 | 30711 ft | 525 kts | 160° |
| 2026-04-24 17:12 | 65.70283 | 19.43736 | 30653 ft | 523 kts | 160° |